Time;durP1;ratioP1;P1;durP2;ratioP2;P2;SDS_P1;SDS_P2;PMS_P1;PMS_P2;Temp;Humidity;BMP_temperature;BMP_pressure;BME280_temperature;BME280_humidity;BME280_pressure;Samples;Min_cycle;Max_cycle;Signal;HPM_P1;HPM_P2
2021/03/23 00:00:21;;;;;;;13.20;7.97;;;1.50;74.80;;;;;;5046468;28;20468;-77
2021/03/23 00:02:49;;;;;;;11.63;7.27;;;1.50;75.10;;;;;;5029042;28;20447;-76
2021/03/23 00:05:16;;;;;;;11.47;7.90;;;1.40;75.30;;;;;;5030602;28;20455;-78
2021/03/23 00:07:42;;;;;;;12.53;7.23;;;1.40;76.50;;;;;;5021771;28;20459;-77
2021/03/23 00:10:10;;;;;;;11.43;7.17;;;1.40;77.00;;;;;;5026722;28;20479;-78
2021/03/23 00:12:37;;;;;;;11.70;7.90;;;1.40;77.40;;;;;;5029890;28;20608;-79
2021/03/23 00:15:07;;;;;;;9.37;7.10;;;1.30;77.60;;;;;;5028741;28;20455;-77
2021/03/23 00:17:34;;;;;;;13.40;7.40;;;1.30;78.40;;;;;;5034513;28;20465;-77
2021/03/23 00:20:00;;;;;;;12.43;6.20;;;1.30;78.70;;;;;;5039912;28;20474;-77
2021/03/23 00:22:26;;;;;;;12.53;7.17;;;1.30;78.80;;;;;;5025373;28;20520;-80
2021/03/23 00:24:53;;;;;;;10.83;6.87;;;1.30;79.10;;;;;;5021815;28;20947;-77
2021/03/23 00:27:19;;;;;;;16.10;7.40;;;1.30;79.60;;;;;;5029613;28;20466;-78
2021/03/23 00:29:46;;;;;;;14.30;7.33;;;1.30;80.20;;;;;;5031791;28;20467;-78
2021/03/23 00:32:13;;;;;;;15.70;7.30;;;1.20;80.30;;;;;;5033498;28;20454;-78
2021/03/23 00:34:40;;;;;;;12.90;8.40;;;1.30;81.20;;;;;;5036477;28;20508;-78
2021/03/23 00:37:06;;;;;;;11.90;7.70;;;1.30;81.50;;;;;;5035088;28;20554;-78
2021/03/23 00:39:32;;;;;;;9.50;6.03;;;1.40;82.20;;;;;;5040178;28;20491;-80
2021/03/23 00:41:59;;;;;;;10.50;7.23;;;1.50;82.60;;;;;;5046987;28;20494;-78
2021/03/23 00:44:25;;;;;;;13.17;6.83;;;1.50;82.60;;;;;;5043575;28;20532;-77
2021/03/23 00:46:52;;;;;;;13.30;6.93;;;1.60;82.60;;;;;;5029757;28;20484;-77
2021/03/23 00:49:19;;;;;;;11.47;6.87;;;1.50;82.60;;;;;;5040926;28;20538;-78
2021/03/23 00:51:45;;;;;;;10.97;7.27;;;1.60;82.70;;;;;;5034894;28;20546;-79
2021/03/23 00:54:11;;;;;;;15.23;7.73;;;1.60;82.50;;;;;;5033856;28;20442;-79
2021/03/23 00:56:38;;;;;;;12.73;7.20;;;1.70;82.50;;;;;;5037417;28;20957;-77
2021/03/23 00:59:04;;;;;;;12.63;6.63;;;1.70;82.60;;;;;;5046169;28;20451;-78
2021/03/23 01:01:30;;;;;;;15.50;7.40;;;1.70;82.90;;;;;;5030048;28;21073;-77
2021/03/23 01:03:57;;;;;;;12.40;6.30;;;1.80;83.30;;;;;;5034785;28;20456;-78
2021/03/23 01:50:50;;;;;;;7.57;5.87;;;2.50;82.20;;;;;;5053760;28;20475;-79
2021/03/23 01:53:23;;;;;;;7.33;5.80;;;2.50;81.30;;;;;;5049503;28;20466;-78
2021/03/23 01:55:49;;;;;;;8.33;6.00;;;2.50;81.60;;;;;;5042448;28;20461;-78
2021/03/23 01:58:17;;;;;;;9.70;6.20;;;2.50;82.20;;;;;;5036131;28;20447;-79
2021/03/23 02:00:46;;;;;;;11.87;7.73;;;2.40;81.70;;;;;;5048239;28;20471;-79
2021/03/23 02:03:13;;;;;;;11.70;6.17;;;2.40;82.30;;;;;;5040901;28;20530;-80
2021/03/23 02:05:41;;;;;;;10.40;6.17;;;2.50;81.90;;;;;;5038860;28;20442;-78
2021/03/23 02:08:08;;;;;;;12.53;6.93;;;2.50;81.40;;;;;;5035123;28;20451;-78
2021/03/23 02:10:36;;;;;;;11.00;6.40;;;2.50;81.10;;;;;;5037644;28;20443;-79
2021/03/23 02:13:06;;;;;;;8.37;6.07;;;2.50;81.20;;;;;;5036812;28;20451;-79
2021/03/23 02:15:33;;;;;;;11.50;6.67;;;2.50;80.40;;;;;;5034305;28;20451;-80
2021/03/23 02:18:18;;;;;;;11.73;5.50;;;2.50;81.20;;;;;;5034377;28;20470;-79
2021/03/23 02:21:00;;;;;;;8.60;6.50;;;2.60;81.10;;;;;;5035575;28;20490;-79
2021/03/23 02:23:29;;;;;;;11.30;7.70;;;2.50;80.70;;;;;;5039554;28;20475;-79
2021/03/23 02:25:55;;;;;;;10.40;6.73;;;2.60;81.30;;;;;;5035094;28;20517;-79
2021/03/23 02:28:25;;;;;;;11.70;7.10;;;2.60;80.90;;;;;;5035216;28;20950;-79
2021/03/23 02:30:53;;;;;;;10.90;7.30;;;2.60;80.90;;;;;;5040543;28;20535;-80
2021/03/23 02:33:20;;;;;;;10.70;7.00;;;2.60;80.20;;;;;;5031629;28;20549;-78
2021/03/23 02:35:47;;;;;;;8.63;6.50;;;2.70;79.60;;;;;;5029876;28;20581;-79
2021/03/23 02:38:14;;;;;;;7.63;6.23;;;2.80;79.00;;;;;;5027182;28;20454;-78
2021/03/23 02:40:42;;;;;;;15.50;6.80;;;2.80;78.50;;;;;;5030396;28;20872;-80
2021/03/23 02:43:09;;;;;;;9.33;6.40;;;2.80;78.80;;;;;;5036430;28;20482;-80
2021/03/23 02:45:35;;;;;;;11.13;6.77;;;2.80;77.70;;;;;;5038363;28;21112;-83
2021/03/23 02:48:02;;;;;;;9.63;5.73;;;2.80;77.40;;;;;;5032963;28;20445;-82
2021/03/23 02:50:31;;;;;;;11.63;5.43;;;2.80;77.50;;;;;;5031495;28;20939;-78
2021/03/23 02:52:58;;;;;;;10.13;6.47;;;2.80;76.30;;;;;;5037638;28;20489;-79
2021/03/23 02:55:25;;;;;;;10.20;7.03;;;2.70;75.90;;;;;;5032225;28;21032;-78
2021/03/23 02:57:51;;;;;;;11.70;6.87;;;2.70;75.90;;;;;;5037833;28;20481;-79
2021/03/23 03:00:19;;;;;;;13.00;7.30;;;2.70;76.60;;;;;;5029986;28;20475;-83
2021/03/23 03:02:46;;;;;;;12.40;7.33;;;2.70;76.40;;;;;;5033981;28;20482;-80
2021/03/23 03:05:13;;;;;;;6.97;6.23;;;2.70;76.80;;;;;;5034030;28;20459;-79
2021/03/23 03:07:39;;;;;;;10.37;6.77;;;2.70;76.90;;;;;;5033057;28;20447;-79
2021/03/23 03:10:09;;;;;;;10.10;6.43;;;2.70;76.20;;;;;;5036941;28;20583;-74
2021/03/23 03:12:36;;;;;;;12.10;6.60;;;2.60;76.20;;;;;;5045340;28;20457;-74
2021/03/23 03:15:04;;;;;;;7.80;6.20;;;2.60;77.10;;;;;;5038688;28;20496;-76
2021/03/23 03:17:30;;;;;;;11.70;6.20;;;2.60;76.50;;;;;;5032812;28;20538;-78
2021/03/23 03:19:56;;;;;;;10.03;6.20;;;2.60;75.70;;;;;;5029112;28;20681;-76
2021/03/23 03:22:22;;;;;;;14.80;7.33;;;2.60;76.20;;;;;;5031633;28;20459;-79
2021/03/23 03:24:49;;;;;;;10.20;7.00;;;2.70;76.60;;;;;;5030682;28;20966;-75
2021/03/23 03:27:15;;;;;;;9.17;7.00;;;2.70;76.40;;;;;;5032523;28;20466;-72
2021/03/23 03:29:42;;;;;;;9.90;6.53;;;2.60;76.10;;;;;;5029549;28;20443;-74
2021/03/23 03:32:09;;;;;;;7.77;6.17;;;2.70;76.20;;;;;;5035588;28;20455;-79
2021/03/23 03:34:36;;;;;;;8.50;6.03;;;2.70;75.90;;;;;;5032681;28;20532;-74
2021/03/23 03:37:02;;;;;;;8.33;6.33;;;2.70;75.70;;;;;;5031115;28;20978;-74
2021/03/23 03:39:29;;;;;;;9.17;6.17;;;2.60;75.70;;;;;;5035990;28;20479;-74
2021/03/23 03:41:55;;;;;;;9.33;5.63;;;2.70;75.80;;;;;;5024995;28;20606;-74
2021/03/23 03:44:21;;;;;;;10.00;6.67;;;2.70;76.20;;;;;;5037678;28;20447;-76
2021/03/23 03:46:48;;;;;;;8.37;6.10;;;2.70;76.00;;;;;;5032640;28;20458;-74
2021/03/23 03:49:15;;;;;;;9.43;5.70;;;2.70;75.90;;;;;;5029595;28;20518;-75
2021/03/23 03:51:41;;;;;;;14.60;6.83;;;2.70;75.70;;;;;;5044494;28;20529;-74
2021/03/23 03:54:08;;;;;;;12.50;6.90;;;2.70;75.70;;;;;;5032979;28;20455;-75
2021/03/23 03:56:34;;;;;;;10.80;6.07;;;2.70;75.70;;;;;;5031879;28;20511;-75
2021/03/23 03:59:01;;;;;;;12.03;6.37;;;2.60;75.80;;;;;;5031098;28;20463;-75
2021/03/23 04:01:27;;;;;;;8.67;6.57;;;2.60;75.80;;;;;;5015757;28;20573;-76
2021/03/23 04:03:55;;;;;;;9.27;5.73;;;2.60;75.80;;;;;;5028609;28;21237;-75
2021/03/23 04:06:24;;;;;;;8.13;6.10;;;2.70;75.70;;;;;;5030171;28;20451;-75
2021/03/23 04:29:02;;;;;;;10.77;7.10;;;2.60;76.30;;;;;;5030710;28;20440;-75
2021/03/23 04:31:33;;;;;;;9.60;6.27;;;2.60;76.40;;;;;;5036509;28;20458;-75
2021/03/23 04:33:59;;;;;;;8.73;6.20;;;2.60;76.50;;;;;;5028776;28;20447;-74
2021/03/23 04:36:26;;;;;;;9.57;6.30;;;2.60;76.60;;;;;;5032898;28;20453;-74
2021/03/23 04:38:53;;;;;;;8.40;7.00;;;2.60;76.80;;;;;;5030346;28;21034;-74
2021/03/23 04:41:20;;;;;;;8.30;6.37;;;2.60;76.70;;;;;;5027310;28;20600;-78
2021/03/23 04:43:49;;;;;;;10.70;6.53;;;2.70;76.90;;;;;;5028564;28;20518;-75
2021/03/23 04:46:21;;;;;;;8.20;6.53;;;2.70;77.00;;;;;;5029354;28;20461;-75
2021/03/23 04:48:47;;;;;;;8.43;6.20;;;2.70;76.60;;;;;;5027810;28;20531;-75
2021/03/23 04:51:14;;;;;;;10.47;6.53;;;2.60;76.90;;;;;;5023161;28;20539;-77
2021/03/23 04:53:42;;;;;;;16.30;6.27;;;2.60;77.00;;;;;;5029560;28;20455;-75
2021/03/23 04:56:17;;;;;;;12.00;7.40;;;2.70;77.00;;;;;;5036521;28;20554;-77
2021/03/23 04:58:44;;;;;;;11.10;7.07;;;2.70;77.00;;;;;;5036419;28;20447;-74
2021/03/23 05:01:10;;;;;;;9.40;6.70;;;2.80;77.10;;;;;;5029547;28;20463;-76
2021/03/23 05:03:37;;;;;;;9.90;6.37;;;2.70;76.80;;;;;;5027451;28;20451;-74
2021/03/23 05:06:07;;;;;;;10.97;7.70;;;2.80;76.90;;;;;;5028329;28;20871;-74
2021/03/23 05:08:34;;;;;;;11.13;6.90;;;2.80;76.80;;;;;;5032716;28;20966;-78
2021/03/23 05:11:01;;;;;;;11.43;6.33;;;2.80;77.10;;;;;;5037189;28;20442;-75
2021/03/23 05:13:28;;;;;;;14.80;7.57;;;2.90;77.30;;;;;;5039906;28;20459;-76
2021/03/23 05:15:54;;;;;;;12.13;6.70;;;2.90;77.10;;;;;;5028368;28;20547;-75
2021/03/23 05:18:20;;;;;;;8.50;7.20;;;2.90;77.20;;;;;;5024069;28;20948;-75
2021/03/23 05:20:48;;;;;;;13.07;8.97;;;2.90;77.10;;;;;;5029444;28;20494;-76
2021/03/23 05:23:15;;;;;;;9.47;7.53;;;2.90;77.30;;;;;;5030236;28;21179;-75
2021/03/23 05:25:41;;;;;;;10.20;7.53;;;2.90;77.00;;;;;;5025274;28;20451;-76
2021/03/23 05:28:08;;;;;;;15.40;9.37;;;3.00;76.80;;;;;;5025439;28;20478;-75
2021/03/23 05:30:35;;;;;;;14.93;8.90;;;3.00;76.90;;;;;;5030688;28;20453;-75
2021/03/23 05:33:02;;;;;;;12.90;8.80;;;2.90;77.20;;;;;;5038662;28;20455;-74
2021/03/23 05:35:28;;;;;;;10.80;7.83;;;3.00;77.20;;;;;;5044071;28;20447;-74
2021/03/23 05:37:55;;;;;;;16.57;7.73;;;3.10;77.20;;;;;;5034831;28;20840;-75
2021/03/23 05:40:24;;;;;;;12.37;6.80;;;3.00;77.00;;;;;;5031883;28;20447;-75
2021/03/23 05:43:02;;;;;;;11.00;7.33;;;3.10;77.00;;;;;;5040024;28;20976;-75
2021/03/23 05:45:34;;;;;;;11.07;7.50;;;3.10;76.60;;;;;;5037922;28;20454;-74
2021/03/23 05:48:20;;;;;;;23.60;10.60;;;3.20;76.40;;;;;;5027626;28;20553;-76
2021/03/23 05:50:54;;;;;;;17.93;7.73;;;3.20;76.90;;;;;;5039501;28;20453;-75
2021/03/23 05:53:30;;;;;;;16.30;9.13;;;3.20;76.10;;;;;;5034330;28;20482;-76
2021/03/23 05:56:00;;;;;;;10.87;7.50;;;3.20;76.30;;;;;;5027972;28;20455;-75
2021/03/23 05:58:30;;;;;;;13.73;9.80;;;3.30;76.30;;;;;;5041945;28;20541;-76
2021/03/23 06:00:59;;;;;;;12.77;7.33;;;3.30;75.90;;;;;;5026626;28;20575;-74
2021/03/23 06:03:29;;;;;;;17.00;7.83;;;3.30;75.50;;;;;;5033088;28;20534;-74
2021/03/23 06:06:03;;;;;;;10.10;6.67;;;3.30;75.60;;;;;;5044238;28;20459;-76
2021/03/23 06:08:32;;;;;;;10.00;7.07;;;3.30;76.00;;;;;;5035683;28;20501;-74
2021/03/23 06:11:39;;;;;;;18.33;7.70;;;3.30;76.00;;;;;;5052488;28;20451;-75
2021/03/23 06:14:33;;;;;;;15.50;7.20;;;3.30;76.10;;;;;;5032999;28;20471;-75
2021/03/23 06:17:09;;;;;;;15.40;6.83;;;3.50;75.90;;;;;;5031778;28;20466;-75
2021/03/23 06:19:43;;;;;;;12.00;8.30;;;3.50;75.30;;;;;;5031465;28;20493;-76
2021/03/23 06:22:21;;;;;;;11.20;7.50;;;3.60;75.20;;;;;;5033544;28;20617;-75
2021/03/23 06:24:57;;;;;;;12.90;8.10;;;3.60;75.10;;;;;;5030163;28;20472;-76
2021/03/23 06:27:30;;;;;;;12.67;8.87;;;3.70;75.60;;;;;;5028054;28;20487;-77
2021/03/23 06:30:29;;;;;;;14.67;9.00;;;3.70;75.10;;;;;;5033869;28;20450;-75
2021/03/23 06:32:56;;;;;;;18.30;9.20;;;3.80;75.20;;;;;;5031603;28;20521;-74
2021/03/23 06:35:28;;;;;;;22.23;9.23;;;3.70;75.00;;;;;;5042618;28;20567;-76
2021/03/23 06:37:55;;;;;;;21.60;10.43;;;3.80;75.00;;;;;;5028460;28;20857;-75
2021/03/23 06:40:25;;;;;;;16.80;9.20;;;3.90;74.40;;;;;;5027235;28;20953;-77
2021/03/23 06:42:54;;;;;;;18.02;10.40;;;3.80;74.80;;;;;;5035878;28;20539;-74
2021/03/23 06:45:34;;;;;;;23.30;10.00;;;3.90;74.80;;;;;;5025696;28;20210;-74
2021/03/23 06:48:20;;;;;;;14.30;10.13;;;4.20;75.20;;;;;;5022244;28;20461;-76
2021/03/23 06:50:48;;;;;;;16.33;9.43;;;4.60;74.00;;;;;;5024485;28;20450;-74
2021/03/23 06:53:16;;;;;;;31.23;11.00;;;4.70;73.80;;;;;;5021189;28;20452;-74
2021/03/23 06:55:46;;;;;;;57.63;12.80;;;4.70;73.90;;;;;;5026565;28;20546;-72
2021/03/23 06:58:27;;;;;;;24.73;11.40;;;4.90;74.10;;;;;;5024358;28;20451;-76
2021/03/23 07:01:25;;;;;;;25.03;11.03;;;4.90;75.30;;;;;;5019526;28;20475;-73
2021/03/23 07:03:53;;;;;;;14.83;10.73;;;4.80;76.60;;;;;;4995722;28;20461;-77
2021/03/23 07:06:29;;;;;;;15.40;11.47;;;5.00;76.30;;;;;;5018175;28;22126;-72
2021/03/23 07:09:10;;;;;;;12.73;10.67;;;4.90;76.60;;;;;;5021538;28;20468;-73
2021/03/23 07:11:56;;;;;;;13.60;10.60;;;5.00;76.50;;;;;;5035892;28;20450;-72
2021/03/23 07:14:27;;;;;;;14.17;10.50;;;5.00;76.50;;;;;;5022090;28;20462;-73
2021/03/23 07:17:03;;;;;;;18.77;11.43;;;5.00;76.60;;;;;;5021662;28;20450;-73
2021/03/23 07:19:30;;;;;;;13.57;10.30;;;5.10;76.00;;;;;;5025389;28;20463;-75
2021/03/23 07:22:05;;;;;;;15.00;10.43;;;5.10;76.30;;;;;;5026336;28;20506;-74
2021/03/23 07:24:33;;;;;;;15.33;9.80;;;5.10;76.70;;;;;;5028587;28;20862;-73
2021/03/23 07:27:03;;;;;;;19.43;11.43;;;5.10;76.30;;;;;;5029805;28;20460;-73
2021/03/23 07:29:32;;;;;;;17.70;10.70;;;5.10;76.00;;;;;;5027865;28;20509;-73
2021/03/23 07:32:26;;;;;;;14.73;10.67;;;5.10;76.30;;;;;;5028634;28;20483;-75
2021/03/23 07:35:07;;;;;;;14.83;10.70;;;5.10;75.90;;;;;;5029857;28;20596;-73
2021/03/23 07:37:47;;;;;;;14.20;10.50;;;5.10;75.90;;;;;;5033267;28;20452;-73
2021/03/23 07:40:23;;;;;;;16.67;11.27;;;5.20;76.10;;;;;;5028732;28;20460;-75
2021/03/23 07:43:05;;;;;;;15.20;10.27;;;5.20;75.40;;;;;;5026005;28;20463;-75
2021/03/23 07:45:42;;;;;;;16.27;11.03;;;5.30;75.30;;;;;;5024129;28;20462;-73
2021/03/23 07:48:13;;;;;;;12.90;10.70;;;5.20;75.10;;;;;;5026249;28;20492;-76
2021/03/23 07:50:43;;;;;;;12.03;10.17;;;5.40;75.00;;;;;;5033210;28;20484;-74
2021/03/23 07:53:18;;;;;;;16.00;10.87;;;5.50;74.80;;;;;;5029914;28;20448;-73
2021/03/23 07:55:48;;;;;;;12.73;10.00;;;5.60;74.10;;;;;;5020943;28;20924;-72
2021/03/23 07:58:31;;;;;;;13.53;9.63;;;5.70;74.10;;;;;;5023743;28;20467;-75
2021/03/23 08:01:34;;;;;;;17.77;11.00;;;5.60;72.80;;;;;;5018541;28;20497;-76
2021/03/23 08:04:07;;;;;;;13.70;9.70;;;5.60;73.10;;;;;;5026184;28;20459;-77
2021/03/23 08:06:45;;;;;;;13.87;10.27;;;5.80;73.10;;;;;;5031400;28;20472;-78
2021/03/23 08:09:46;;;;;;;13.50;9.77;;;5.90;72.70;;;;;;5034861;28;20452;-76
2021/03/23 08:12:56;;;;;;;13.23;9.53;;;6.00;72.60;;;;;;5032223;28;21006;-78
2021/03/23 08:15:51;;;;;;;12.43;10.60;;;6.10;71.90;;;;;;4997920;28;20445;-78
2021/03/23 08:18:52;;;;;;;14.97;10.20;;;6.10;71.80;;;;;;4991794;28;20471;-77
2021/03/23 08:21:55;;;;;;;14.30;9.80;;;6.30;72.00;;;;;;5032762;28;20479;-80
2021/03/23 08:24:34;;;;;;;12.27;9.70;;;6.40;70.50;;;;;;5020548;28;20499;-77
2021/03/23 08:27:42;;;;;;;11.20;9.00;;;6.40;70.40;;;;;;5040995;28;20453;-78
2021/03/23 08:30:31;;;;;;;21.53;10.07;;;6.50;69.40;;;;;;4988854;28;21024;-77
2021/03/23 08:33:11;;;;;;;12.10;8.57;;;6.60;69.40;;;;;;5033775;28;20486;-79
2021/03/23 08:35:54;;;;;;;11.53;9.27;;;6.40;68.70;;;;;;5043945;28;20456;-78
2021/03/23 08:38:33;;;;;;;11.23;8.63;;;6.50;68.80;;;;;;5034998;28;20460;-77
2021/03/23 08:41:04;;;;;;;15.77;10.07;;;6.50;68.50;;;;;;5029999;28;20517;-80
2021/03/23 08:43:36;;;;;;;11.40;8.70;;;6.50;68.50;;;;;;5027630;28;20462;-78
2021/03/23 08:46:06;;;;;;;14.18;10.40;;;6.60;68.90;;;;;;5021717;28;21210;-75
2021/03/23 08:48:47;;;;;;;14.20;9.20;;;6.60;67.80;;;;;;5032253;28;20214;-77
2021/03/23 08:51:18;;;;;;;13.63;9.73;;;7.00;67.50;;;;;;5030770;28;20453;-74
2021/03/23 08:53:55;;;;;;;12.20;8.67;;;7.10;66.90;;;;;;5020647;28;20474;-78
2021/03/23 08:56:55;;;;;;;18.03;10.20;;;7.20;65.70;;;;;;5027102;28;20542;-78
2021/03/23 08:59:58;;;;;;;18.77;8.37;;;6.90;65.10;;;;;;5020913;28;20461;-79
2021/03/23 09:02:46;;;;;;;36.70;10.47;;;6.60;64.60;;;;;;5019395;28;20484;-77
2021/03/23 09:05:55;;;;;;;14.47;9.57;;;6.60;65.30;;;;;;5027156;28;20542;-79
2021/03/23 09:08:50;;;;;;;11.67;9.10;;;6.60;64.80;;;;;;5041930;28;20466;-78
2021/03/23 09:11:59;;;;;;;8.80;7.60;;;7.00;64.60;;;;;;5038351;28;20447;-80
2021/03/23 09:14:28;;;;;;;9.27;8.27;;;6.70;63.60;;;;;;5027478;28;20486;-79
2021/03/23 09:17:21;;;;;;;12.50;8.70;;;7.10;63.70;;;;;;5043653;28;20452;-79
2021/03/23 09:19:57;;;;;;;15.60;8.23;;;7.30;63.60;;;;;;5054937;28;20457;-77
2021/03/23 09:22:40;;;;;;;13.07;8.67;;;7.40;63.20;;;;;;5050785;28;20468;-79
2021/03/23 09:25:25;;;;;;;14.70;9.10;;;7.00;63.70;;;;;;5042830;28;21022;-79
2021/03/23 09:28:02;;;;;;;11.23;8.20;;;6.90;64.00;;;;;;5026461;28;20494;-82
2021/03/23 09:30:52;;;;;;;9.40;7.67;;;7.00;64.00;;;;;;5042295;28;20459;-80
2021/03/23 09:33:33;;;;;;;11.50;8.73;;;7.00;64.10;;;;;;5045713;28;20459;-78
2021/03/23 09:36:31;;;;;;;9.50;7.23;;;7.20;64.00;;;;;;5031375;28;21036;-79
2021/03/23 09:39:41;;;;;;;17.73;8.83;;;7.30;63.20;;;;;;5028824;28;20448;-81
2021/03/23 09:42:31;;;;;;;12.20;7.57;;;7.60;62.70;;;;;;5038220;28;20495;-76
2021/03/23 09:45:22;;;;;;;39.97;11.07;;;7.40;62.80;;;;;;5025965;28;20545;-78
2021/03/23 09:48:01;;;;;;;17.43;9.10;;;7.30;62.70;;;;;;5037251;28;20932;-77
2021/03/23 09:50:37;;;;;;;19.83;10.05;;;7.60;62.20;;;;;;5037111;28;20480;-78
2021/03/23 09:53:12;;;;;;;10.03;8.60;;;7.80;62.40;;;;;;5051671;28;20213;-79
2021/03/23 09:55:40;;;;;;;27.23;10.73;;;8.00;62.00;;;;;;5045280;28;20478;-79
2021/03/23 09:58:13;;;;;;;10.70;7.20;;;8.10;61.50;;;;;;5038529;28;20451;-79
2021/03/23 10:00:40;;;;;;;94.30;14.80;;;7.80;60.90;;;;;;5035790;28;20487;-79
2021/03/23 10:03:24;;;;;;;12.03;8.43;;;7.40;61.30;;;;;;5044681;28;20498;-80
2021/03/23 10:06:02;;;;;;;11.20;7.90;;;7.40;61.70;;;;;;5038227;28;20457;-80
2021/03/23 10:08:32;;;;;;;9.73;7.17;;;7.40;60.80;;;;;;5050223;28;20465;-80
2021/03/23 10:11:11;;;;;;;9.05;7.60;;;7.30;60.80;;;;;;5038784;28;20452;-76
2021/03/23 10:13:38;;;;;;;8.20;6.37;;;7.40;60.20;;;;;;5033858;28;20217;-75
2021/03/23 10:16:07;;;;;;;7.93;7.13;;;7.60;59.30;;;;;;5028536;28;20462;-80
2021/03/23 10:18:39;;;;;;;8.77;6.80;;;7.60;59.20;;;;;;5031172;28;20536;-78
2021/03/23 10:21:10;;;;;;;14.60;7.73;;;8.00;58.80;;;;;;5024128;28;20936;-78
2021/03/23 10:23:44;;;;;;;9.23;8.10;;;8.00;59.10;;;;;;5031793;28;20587;-79
2021/03/23 10:26:11;;;;;;;9.07;8.17;;;7.70;59.60;;;;;;5029400;28;20494;-76
2021/03/23 10:28:39;;;;;;;13.90;8.87;;;7.90;59.50;;;;;;5031943;28;20468;-78
2021/03/23 10:31:08;;;;;;;12.40;7.50;;;7.60;59.70;;;;;;5015213;28;20441;-82
2021/03/23 10:33:37;;;;;;;9.33;7.10;;;7.70;59.10;;;;;;5047211;28;20874;-81
2021/03/23 10:36:06;;;;;;;10.57;7.77;;;8.00;59.30;;;;;;5046156;28;20516;-76
2021/03/23 10:38:39;;;;;;;8.63;7.70;;;8.20;59.10;;;;;;5040217;28;20987;-76
2021/03/23 10:41:26;;;;;;;16.50;8.50;;;8.50;58.60;;;;;;5044441;28;20236;-77
2021/03/23 10:43:54;;;;;;;9.17;7.10;;;9.00;57.40;;;;;;5036127;28;20559;-83
2021/03/23 10:46:29;;;;;;;8.43;7.13;;;9.20;57.50;;;;;;5029925;28;20454;-78
2021/03/23 10:49:12;;;;;;;9.60;7.00;;;8.90;56.70;;;;;;5022786;28;20534;-80
2021/03/23 10:51:41;;;;;;;7.77;6.83;;;9.00;57.50;;;;;;5039655;28;20460;-79
2021/03/23 10:54:19;;;;;;;7.23;6.33;;;8.80;56.30;;;;;;5028418;28;20457;-78
2021/03/23 10:56:48;;;;;;;7.57;6.77;;;8.50;56.40;;;;;;5035902;28;20480;-78
2021/03/23 10:59:26;;;;;;;9.13;7.23;;;8.50;56.60;;;;;;5033895;28;20463;-78
2021/03/23 11:02:01;;;;;;;8.43;7.30;;;8.50;56.30;;;;;;5037484;28;20470;-78
2021/03/23 11:04:30;;;;;;;9.20;6.60;;;8.40;56.80;;;;;;5033954;28;20456;-79
2021/03/23 11:06:56;;;;;;;8.97;7.27;;;8.50;56.80;;;;;;5037616;28;20438;-79
2021/03/23 11:09:26;;;;;;;12.20;9.10;;;8.30;56.70;;;;;;5039718;28;20449;-78
2021/03/23 11:11:55;;;;;;;9.27;7.20;;;8.20;57.10;;;;;;5049360;28;20225;-82
2021/03/23 11:14:22;;;;;;;8.97;7.60;;;8.60;56.60;;;;;;5044238;28;20502;-82
2021/03/23 11:16:49;;;;;;;12.43;7.67;;;9.10;56.70;;;;;;5045158;28;20445;-81
2021/03/23 11:19:26;;;;;;;9.20;6.90;;;9.00;56.80;;;;;;5059127;28;20466;-79
2021/03/23 11:21:58;;;;;;;9.10;7.77;;;9.30;56.30;;;;;;5036261;28;20520;-80
2021/03/23 11:24:25;;;;;;;10.07;6.87;;;9.00;55.60;;;;;;5047190;28;20488;-80
2021/03/23 11:26:53;;;;;;;7.80;7.00;;;9.20;55.50;;;;;;5042876;28;20532;-79
2021/03/23 11:29:20;;;;;;;7.20;6.27;;;9.00;55.10;;;;;;5042318;28;20205;-76
2021/03/23 11:31:46;;;;;;;7.63;6.83;;;8.60;54.80;;;;;;5041171;28;20455;-82
2021/03/23 11:34:13;;;;;;;9.57;7.20;;;8.60;54.90;;;;;;5050751;28;20512;-84
2021/03/23 11:36:39;;;;;;;12.77;8.30;;;8.70;55.10;;;;;;5057041;28;20467;-84
2021/03/23 11:39:10;;;;;;;7.97;7.17;;;8.70;55.30;;;;;;5051556;28;20477;-81
2021/03/23 11:42:01;;;;;;;13.30;7.17;;;8.40;55.20;;;;;;5045181;28;20472;-82
2021/03/23 11:44:32;;;;;;;9.13;7.90;;;7.90;55.80;;;;;;5036259;28;20531;-77
2021/03/23 11:47:08;;;;;;;9.90;8.90;;;7.70;56.70;;;;;;5050435;28;20466;-78
2021/03/23 11:49:49;;;;;;;9.33;7.13;;;7.70;56.60;;;;;;5049241;28;20210;-80
2021/03/23 11:52:16;;;;;;;9.60;7.20;;;7.70;56.60;;;;;;5046390;28;20453;-80
2021/03/23 11:54:45;;;;;;;10.18;8.40;;;7.70;56.50;;;;;;5029025;28;20468;-76
2021/03/23 11:57:12;;;;;;;11.27;8.98;;;7.70;56.60;;;;;;5033013;28;20441;-77
2021/03/23 11:59:39;;;;;;;9.10;7.87;;;7.90;56.90;;;;;;5037335;28;20219;-76
2021/03/23 12:02:06;;;;;;;10.90;7.73;;;8.00;56.30;;;;;;5027605;28;20576;-77
2021/03/23 12:04:34;;;;;;;8.27;7.27;;;7.90;56.40;;;;;;5029969;28;20466;-78
2021/03/23 12:07:09;;;;;;;9.53;7.33;;;7.80;56.20;;;;;;5027290;28;20485;-76
2021/03/23 12:09:45;;;;;;;9.90;8.03;;;8.00;55.80;;;;;;5026821;28;20436;-76
2021/03/23 12:12:22;;;;;;;11.63;9.60;;;8.30;57.00;;;;;;5023725;28;20457;-75
2021/03/23 12:15:00;;;;;;;11.40;7.93;;;8.50;56.30;;;;;;5038569;28;20493;-76
2021/03/23 12:17:30;;;;;;;12.93;8.70;;;8.80;55.30;;;;;;5025129;28;20465;-76
2021/03/23 12:20:05;;;;;;;11.33;9.60;;;8.70;55.50;;;;;;5027980;28;20473;-76
2021/03/23 12:22:33;;;;;;;8.47;7.50;;;8.90;56.20;;;;;;5023791;28;20986;-77
2021/03/23 12:25:00;;;;;;;8.70;7.80;;;8.70;55.30;;;;;;5029842;28;20523;-76
2021/03/23 12:27:29;;;;;;;10.30;8.40;;;8.80;55.10;;;;;;5022668;28;20986;-77
2021/03/23 12:30:00;;;;;;;9.00;8.10;;;8.80;55.50;;;;;;5029380;28;20449;-76
2021/03/23 12:32:26;;;;;;;7.93;7.13;;;8.80;55.60;;;;;;5032348;28;20525;-76
2021/03/23 12:34:53;;;;;;;9.60;8.23;;;9.30;55.40;;;;;;5030512;28;20447;-76
2021/03/23 12:37:21;;;;;;;11.07;9.20;;;9.40;55.00;;;;;;5035264;28;20466;-75
2021/03/23 12:39:48;;;;;;;10.57;8.27;;;8.80;54.90;;;;;;5028508;28;20478;-75
2021/03/23 12:42:17;;;;;;;9.80;8.33;;;8.80;55.60;;;;;;5031281;28;20517;-76
2021/03/23 12:44:45;;;;;;;12.87;9.87;;;8.70;55.30;;;;;;5034178;28;20558;-74
2021/03/23 12:47:12;;;;;;;12.77;9.10;;;8.20;55.70;;;;;;5025978;28;20451;-75
2021/03/23 12:49:39;;;;;;;14.50;10.13;;;8.30;55.90;;;;;;5027691;28;20964;-76
2021/03/23 12:52:07;;;;;;;12.20;9.07;;;8.60;55.70;;;;;;5025574;28;21028;-74
2021/03/23 12:54:37;;;;;;;11.20;8.77;;;8.80;55.80;;;;;;5031481;28;20451;-74
2021/03/23 12:57:09;;;;;;;11.00;9.63;;;8.80;55.50;;;;;;5029469;28;20449;-75
2021/03/23 12:59:35;;;;;;;10.80;9.70;;;8.90;55.60;;;;;;5032321;28;20447;-75
2021/03/23 13:02:03;;;;;;;10.60;9.20;;;8.90;55.30;;;;;;5036353;28;20467;-82
2021/03/23 13:04:29;;;;;;;13.03;9.90;;;9.30;55.50;;;;;;5038497;28;20510;-82
2021/03/23 13:06:57;;;;;;;11.43;9.40;;;9.10;55.40;;;;;;5039831;28;20447;-83
2021/03/23 13:09:27;;;;;;;14.50;10.53;;;9.10;55.50;;;;;;5039623;28;20467;-82
2021/03/23 13:11:55;;;;;;;10.47;9.30;;;9.30;55.40;;;;;;5040576;28;20514;-83
2021/03/23 13:14:24;;;;;;;10.60;8.90;;;9.30;55.10;;;;;;5044433;28;20496;-82
2021/03/23 13:16:53;;;;;;;11.70;9.03;;;9.10;55.10;;;;;;5039664;28;20508;-80
2021/03/23 13:19:22;;;;;;;14.40;10.10;;;9.10;55.80;;;;;;5043556;28;20478;-84
2021/03/23 13:21:54;;;;;;;14.77;10.87;;;9.40;55.40;;;;;;5056756;28;20451;-82
2021/03/23 13:24:40;;;;;;;13.03;10.20;;;9.30;55.10;;;;;;5039056;28;20505;-80
2021/03/23 13:27:21;;;;;;;13.07;10.53;;;8.90;55.40;;;;;;5044112;28;20517;-79
2021/03/23 13:29:49;;;;;;;13.15;11.75;;;8.80;55.70;;;;;;5031334;28;20454;-80
2021/03/23 13:32:19;;;;;;;14.50;11.33;;;8.70;55.90;;;;;;5039442;28;20202;-80
2021/03/23 13:34:47;;;;;;;13.60;11.17;;;8.80;56.00;;;;;;5042868;28;20461;-81
2021/03/23 13:37:21;;;;;;;14.90;11.03;;;8.50;55.50;;;;;;5051521;28;20453;-80
2021/03/23 13:39:52;;;;;;;11.93;10.67;;;8.40;54.90;;;;;;5044808;28;20457;-79
2021/03/23 13:42:21;;;;;;;17.43;12.70;;;8.30;54.90;;;;;;5047770;28;20476;-82
2021/03/23 13:44:57;;;;;;;20.70;12.70;;;8.30;55.00;;;;;;5036607;28;20982;-81
2021/03/23 13:47:25;;;;;;;15.63;11.27;;;8.60;55.00;;;;;;5039231;28;20451;-82
2021/03/23 13:49:53;;;;;;;16.20;13.20;;;8.70;53.90;;;;;;5041863;28;20460;-81
2021/03/23 13:52:25;;;;;;;16.83;11.93;;;8.40;54.70;;;;;;5041759;28;20505;-80
2021/03/23 13:54:52;;;;;;;15.40;12.37;;;8.60;54.90;;;;;;5040445;28;20466;-81
2021/03/23 13:57:19;;;;;;;20.83;12.63;;;8.80;54.40;;;;;;5043813;28;20567;-82
2021/03/23 13:59:46;;;;;;;15.53;12.33;;;9.10;54.80;;;;;;5040762;28;20462;-86
2021/03/23 14:02:15;;;;;;;22.40;13.90;;;9.40;54.70;;;;;;5039341;28;20467;-82
2021/03/23 14:04:43;;;;;;;16.23;12.97;;;9.20;54.50;;;;;;5028645;28;20481;-82
2021/03/23 14:09:57;;;;;;;26.33;14.77;;;8.90;54.80;;;;;;5048512;28;20530;-79
2021/03/23 14:12:26;;;;;;;18.27;13.67;;;9.10;55.10;;;;;;5051671;28;20203;-80
2021/03/23 14:14:53;;;;;;;23.70;14.70;;;8.90;54.70;;;;;;5044940;28;20464;-79
2021/03/23 14:17:23;;;;;;;27.50;15.20;;;9.00;55.50;;;;;;5047176;28;20546;-81
2021/03/23 14:19:49;;;;;;;21.00;14.70;;;9.20;55.30;;;;;;5041385;28;20453;-81
2021/03/23 14:22:18;;;;;;;16.60;14.70;;;9.10;55.40;;;;;;5039358;28;20474;-81